sensor_id;sensor_type;location;lat;lon;timestamp;P1;durP1;ratioP1;P2;durP2;ratioP2
3943;SDS011;1986;52.546;13.428;2022-08-19T00:01:47;74.03;;;71.03;;
3943;SDS011;1986;52.546;13.428;2022-08-19T00:04:15;64.43;;;61.73;;
3943;SDS011;1986;52.546;13.428;2022-08-19T00:06:44;62.80;;;59.93;;
3943;SDS011;1986;52.546;13.428;2022-08-19T00:09:13;60.77;;;57.53;;
3943;SDS011;1986;52.546;13.428;2022-08-19T00:11:42;52.27;;;50.37;;
3943;SDS011;1986;52.546;13.428;2022-08-19T00:14:11;52.07;;;49.93;;
3943;SDS011;1986;52.546;13.428;2022-08-19T00:16:40;52.43;;;50.03;;
3943;SDS011;1986;52.546;13.428;2022-08-19T00:19:09;43.17;;;41.00;;
3943;SDS011;1986;52.546;13.428;2022-08-19T00:21:36;38.47;;;37.10;;
3943;SDS011;1986;52.546;13.428;2022-08-19T00:24:04;39.27;;;37.60;;
3943;SDS011;1986;52.546;13.428;2022-08-19T00:26:35;42.17;;;40.67;;
3943;SDS011;1986;52.546;13.428;2022-08-19T00:29:05;64.30;;;61.53;;
3943;SDS011;1986;52.546;13.428;2022-08-19T00:31:35;74.10;;;70.10;;
3943;SDS011;1986;52.546;13.428;2022-08-19T00:34:05;64.80;;;61.57;;
3943;SDS011;1986;52.546;13.428;2022-08-19T00:36:46;58.93;;;56.13;;
3943;SDS011;1986;52.546;13.428;2022-08-19T00:39:16;53.30;;;51.00;;
3943;SDS011;1986;52.546;13.428;2022-08-19T00:41:46;52.63;;;49.97;;
3943;SDS011;1986;52.546;13.428;2022-08-19T00:44:15;51.13;;;48.70;;
3943;SDS011;1986;52.546;13.428;2022-08-19T00:46:47;47.10;;;45.20;;
3943;SDS011;1986;52.546;13.428;2022-08-19T00:49:15;48.20;;;45.77;;
3943;SDS011;1986;52.546;13.428;2022-08-19T00:51:47;45.00;;;43.20;;
3943;SDS011;1986;52.546;13.428;2022-08-19T00:54:24;45.80;;;44.00;;
3943;SDS011;1986;52.546;13.428;2022-08-19T00:56:51;55.67;;;52.90;;
3943;SDS011;1986;52.546;13.428;2022-08-19T00:59:19;56.33;;;54.13;;
3943;SDS011;1986;52.546;13.428;2022-08-19T01:01:50;51.50;;;49.50;;
3943;SDS011;1986;52.546;13.428;2022-08-19T01:04:18;49.20;;;47.30;;
3943;SDS011;1986;52.546;13.428;2022-08-19T01:06:45;48.00;;;46.10;;
3943;SDS011;1986;52.546;13.428;2022-08-19T01:09:12;52.30;;;50.13;;
3943;SDS011;1986;52.546;13.428;2022-08-19T01:11:39;57.17;;;54.67;;
3943;SDS011;1986;52.546;13.428;2022-08-19T01:14:09;60.80;;;57.30;;
3943;SDS011;1986;52.546;13.428;2022-08-19T01:16:37;54.20;;;51.77;;
3943;SDS011;1986;52.546;13.428;2022-08-19T01:19:10;47.63;;;45.83;;
3943;SDS011;1986;52.546;13.428;2022-08-19T01:21:45;45.27;;;43.30;;
3943;SDS011;1986;52.546;13.428;2022-08-19T01:24:22;43.10;;;41.50;;
3943;SDS011;1986;52.546;13.428;2022-08-19T01:26:49;48.03;;;46.23;;
3943;SDS011;1986;52.546;13.428;2022-08-19T01:29:17;47.77;;;45.20;;
3943;SDS011;1986;52.546;13.428;2022-08-19T01:31:43;43.80;;;42.10;;
3943;SDS011;1986;52.546;13.428;2022-08-19T01:34:10;43.40;;;41.70;;
3943;SDS011;1986;52.546;13.428;2022-08-19T01:36:40;43.83;;;42.13;;
3943;SDS011;1986;52.546;13.428;2022-08-19T01:39:11;47.67;;;45.77;;
3943;SDS011;1986;52.546;13.428;2022-08-19T01:41:41;38.60;;;37.00;;
3943;SDS011;1986;52.546;13.428;2022-08-19T01:44:09;34.57;;;33.27;;
3943;SDS011;1986;52.546;13.428;2022-08-19T01:46:37;33.13;;;31.93;;
3943;SDS011;1986;52.546;13.428;2022-08-19T01:49:06;31.80;;;30.70;;
3943;SDS011;1986;52.546;13.428;2022-08-19T01:51:36;31.93;;;30.80;;
3943;SDS011;1986;52.546;13.428;2022-08-19T01:54:04;37.77;;;36.17;;
3943;SDS011;1986;52.546;13.428;2022-08-19T01:56:31;32.83;;;31.63;;
3943;SDS011;1986;52.546;13.428;2022-08-19T01:59:03;30.30;;;29.20;;
3943;SDS011;1986;52.546;13.428;2022-08-19T02:01:36;30.17;;;29.07;;
3943;SDS011;1986;52.546;13.428;2022-08-19T02:04:06;35.50;;;33.17;;
3943;SDS011;1986;52.546;13.428;2022-08-19T02:06:36;29.10;;;26.80;;
3943;SDS011;1986;52.546;13.428;2022-08-19T02:09:04;29.23;;;26.90;;
3943;SDS011;1986;52.546;13.428;2022-08-19T02:11:33;30.53;;;28.60;;
3943;SDS011;1986;52.546;13.428;2022-08-19T02:14:04;21.53;;;20.80;;
3943;SDS011;1986;52.546;13.428;2022-08-19T02:16:37;26.20;;;24.53;;
3943;SDS011;1986;52.546;13.428;2022-08-19T02:19:05;21.03;;;20.10;;
3943;SDS011;1986;52.546;13.428;2022-08-19T02:21:33;19.63;;;18.53;;
3943;SDS011;1986;52.546;13.428;2022-08-19T02:24:00;17.97;;;17.23;;
3943;SDS011;1986;52.546;13.428;2022-08-19T02:26:27;18.83;;;17.70;;
3943;SDS011;1986;52.546;13.428;2022-08-19T02:28:54;19.87;;;17.90;;
3943;SDS011;1986;52.546;13.428;2022-08-19T02:31:24;19.50;;;18.10;;
3943;SDS011;1986;52.546;13.428;2022-08-19T02:33:53;14.70;;;14.20;;
3943;SDS011;1986;52.546;13.428;2022-08-19T02:36:20;14.83;;;14.33;;
3943;SDS011;1986;52.546;13.428;2022-08-19T02:38:48;17.07;;;16.27;;
3943;SDS011;1986;52.546;13.428;2022-08-19T02:41:15;17.30;;;16.67;;
3943;SDS011;1986;52.546;13.428;2022-08-19T02:43:44;15.27;;;14.97;;
3943;SDS011;1986;52.546;13.428;2022-08-19T02:46:11;16.10;;;15.70;;
3943;SDS011;1986;52.546;13.428;2022-08-19T02:48:41;17.13;;;16.57;;
3943;SDS011;1986;52.546;13.428;2022-08-19T02:51:08;19.93;;;19.03;;
3943;SDS011;1986;52.546;13.428;2022-08-19T02:53:41;17.00;;;16.60;;
3943;SDS011;1986;52.546;13.428;2022-08-19T02:56:08;18.93;;;18.43;;
3943;SDS011;1986;52.546;13.428;2022-08-19T02:58:35;19.63;;;19.03;;
3943;SDS011;1986;52.546;13.428;2022-08-19T03:01:02;19.50;;;18.90;;
3943;SDS011;1986;52.546;13.428;2022-08-19T03:03:28;22.33;;;21.43;;
3943;SDS011;1986;52.546;13.428;2022-08-19T03:06:06;23.07;;;22.20;;
3943;SDS011;1986;52.546;13.428;2022-08-19T03:08:34;23.83;;;22.93;;
3943;SDS011;1986;52.546;13.428;2022-08-19T03:11:01;23.70;;;22.17;;
3943;SDS011;1986;52.546;13.428;2022-08-19T03:13:29;24.20;;;23.50;;
3943;SDS011;1986;52.546;13.428;2022-08-19T03:15:56;22.60;;;21.90;;
3943;SDS011;1986;52.546;13.428;2022-08-19T03:18:23;26.27;;;25.10;;
3943;SDS011;1986;52.546;13.428;2022-08-19T03:20:50;26.33;;;25.17;;
3943;SDS011;1986;52.546;13.428;2022-08-19T03:23:21;24.30;;;23.40;;
3943;SDS011;1986;52.546;13.428;2022-08-19T03:25:49;25.30;;;24.43;;
3943;SDS011;1986;52.546;13.428;2022-08-19T03:28:17;23.83;;;23.13;;
3943;SDS011;1986;52.546;13.428;2022-08-19T03:30:54;24.63;;;23.83;;
3943;SDS011;1986;52.546;13.428;2022-08-19T03:33:23;25.90;;;24.70;;
3943;SDS011;1986;52.546;13.428;2022-08-19T03:36:01;27.77;;;26.13;;
3943;SDS011;1986;52.546;13.428;2022-08-19T03:38:35;22.87;;;22.07;;
3943;SDS011;1986;52.546;13.428;2022-08-19T03:41:03;23.93;;;23.17;;
3943;SDS011;1986;52.546;13.428;2022-08-19T03:43:33;21.97;;;21.37;;
3943;SDS011;1986;52.546;13.428;2022-08-19T03:46:01;23.23;;;22.40;;
3943;SDS011;1986;52.546;13.428;2022-08-19T03:48:30;22.50;;;21.80;;
3943;SDS011;1986;52.546;13.428;2022-08-19T03:50:58;25.13;;;23.67;;
3943;SDS011;1986;52.546;13.428;2022-08-19T03:53:26;24.30;;;23.30;;
3943;SDS011;1986;52.546;13.428;2022-08-19T03:55:56;22.23;;;21.53;;
3943;SDS011;1986;52.546;13.428;2022-08-19T03:58:24;24.47;;;23.57;;
3943;SDS011;1986;52.546;13.428;2022-08-19T04:00:53;21.70;;;21.00;;
3943;SDS011;1986;52.546;13.428;2022-08-19T04:03:20;26.97;;;25.87;;
3943;SDS011;1986;52.546;13.428;2022-08-19T04:05:47;23.07;;;22.00;;
3943;SDS011;1986;52.546;13.428;2022-08-19T04:08:15;23.10;;;22.20;;
3943;SDS011;1986;52.546;13.428;2022-08-19T04:10:43;22.60;;;21.70;;
3943;SDS011;1986;52.546;13.428;2022-08-19T04:13:12;24.57;;;23.77;;
3943;SDS011;1986;52.546;13.428;2022-08-19T04:15:39;25.73;;;24.63;;
3943;SDS011;1986;52.546;13.428;2022-08-19T04:18:08;26.03;;;25.10;;
3943;SDS011;1986;52.546;13.428;2022-08-19T04:20:39;25.53;;;24.73;;
3943;SDS011;1986;52.546;13.428;2022-08-19T04:23:08;26.07;;;25.27;;
3943;SDS011;1986;52.546;13.428;2022-08-19T04:25:35;25.07;;;24.27;;
3943;SDS011;1986;52.546;13.428;2022-08-19T04:28:03;25.30;;;24.43;;
3943;SDS011;1986;52.546;13.428;2022-08-19T04:30:36;29.23;;;27.83;;
3943;SDS011;1986;52.546;13.428;2022-08-19T04:33:04;22.80;;;21.90;;
3943;SDS011;1986;52.546;13.428;2022-08-19T04:35:34;23.27;;;22.47;;
3943;SDS011;1986;52.546;13.428;2022-08-19T04:38:02;21.73;;;21.03;;
3943;SDS011;1986;52.546;13.428;2022-08-19T04:40:29;21.33;;;20.63;;
3943;SDS011;1986;52.546;13.428;2022-08-19T04:43:16;19.10;;;18.60;;
3943;SDS011;1986;52.546;13.428;2022-08-19T04:45:45;20.90;;;20.20;;
3943;SDS011;1986;52.546;13.428;2022-08-19T04:48:12;20.20;;;19.60;;
3943;SDS011;1986;52.546;13.428;2022-08-19T04:50:40;18.83;;;18.23;;
3943;SDS011;1986;52.546;13.428;2022-08-19T04:53:08;21.93;;;21.23;;
3943;SDS011;1986;52.546;13.428;2022-08-19T04:55:38;21.63;;;20.53;;
3943;SDS011;1986;52.546;13.428;2022-08-19T04:58:07;24.80;;;22.90;;
3943;SDS011;1986;52.546;13.428;2022-08-19T05:00:37;19.93;;;19.13;;
3943;SDS011;1986;52.546;13.428;2022-08-19T05:03:09;17.60;;;17.10;;
3943;SDS011;1986;52.546;13.428;2022-08-19T05:05:38;17.90;;;17.40;;
3943;SDS011;1986;52.546;13.428;2022-08-19T05:08:06;16.93;;;16.23;;
3943;SDS011;1986;52.546;13.428;2022-08-19T05:10:34;16.03;;;15.50;;
3943;SDS011;1986;52.546;13.428;2022-08-19T05:13:02;18.20;;;17.60;;
3943;SDS011;1986;52.546;13.428;2022-08-19T05:15:34;15.23;;;14.73;;
3943;SDS011;1986;52.546;13.428;2022-08-19T05:18:02;14.10;;;13.70;;
3943;SDS011;1986;52.546;13.428;2022-08-19T05:20:52;11.50;;;11.20;;
3943;SDS011;1986;52.546;13.428;2022-08-19T05:23:36;7.93;;;7.70;;
3943;SDS011;1986;52.546;13.428;2022-08-19T05:26:03;7.90;;;7.80;;
3943;SDS011;1986;52.546;13.428;2022-08-19T05:28:34;3.80;;;3.80;;
3943;SDS011;1986;52.546;13.428;2022-08-19T05:31:01;2.40;;;2.40;;
3943;SDS011;1986;52.546;13.428;2022-08-19T05:33:28;3.67;;;3.57;;
3943;SDS011;1986;52.546;13.428;2022-08-19T05:35:58;1.40;;;1.40;;
3943;SDS011;1986;52.546;13.428;2022-08-19T05:38:34;5.73;;;5.23;;
3943;SDS011;1986;52.546;13.428;2022-08-19T05:41:05;3.00;;;2.20;;
3943;SDS011;1986;52.546;13.428;2022-08-19T05:43:34;3.30;;;3.20;;
3943;SDS011;1986;52.546;13.428;2022-08-19T05:46:06;2.47;;;2.47;;
3943;SDS011;1986;52.546;13.428;2022-08-19T05:48:35;4.20;;;3.90;;
3943;SDS011;1986;52.546;13.428;2022-08-19T05:51:04;3.93;;;3.73;;
3943;SDS011;1986;52.546;13.428;2022-08-19T05:53:33;3.50;;;3.40;;
3943;SDS011;1986;52.546;13.428;2022-08-19T05:56:03;3.33;;;3.13;;
3943;SDS011;1986;52.546;13.428;2022-08-19T05:58:34;2.60;;;2.50;;
3943;SDS011;1986;52.546;13.428;2022-08-19T06:01:02;1.30;;;1.30;;
3943;SDS011;1986;52.546;13.428;2022-08-19T06:03:31;1.13;;;1.13;;
3943;SDS011;1986;52.546;13.428;2022-08-19T06:06:02;2.10;;;2.00;;
3943;SDS011;1986;52.546;13.428;2022-08-19T06:08:31;0.97;;;0.97;;
3943;SDS011;1986;52.546;13.428;2022-08-19T06:11:11;1.63;;;1.63;;
3943;SDS011;1986;52.546;13.428;2022-08-19T06:13:39;0.80;;;0.80;;
3943;SDS011;1986;52.546;13.428;2022-08-19T06:16:06;0.80;;;0.80;;
3943;SDS011;1986;52.546;13.428;2022-08-19T06:18:33;1.63;;;1.53;;
3943;SDS011;1986;52.546;13.428;2022-08-19T06:21:00;2.60;;;1.50;;
3943;SDS011;1986;52.546;13.428;2022-08-19T06:23:29;0.97;;;0.97;;
3943;SDS011;1986;52.546;13.428;2022-08-19T06:25:57;3.77;;;3.57;;
3943;SDS011;1986;52.546;13.428;2022-08-19T06:28:24;2.90;;;2.70;;
3943;SDS011;1986;52.546;13.428;2022-08-19T06:30:51;2.40;;;2.30;;
3943;SDS011;1986;52.546;13.428;2022-08-19T06:33:18;2.20;;;2.10;;
3943;SDS011;1986;52.546;13.428;2022-08-19T06:35:45;1.67;;;1.67;;
3943;SDS011;1986;52.546;13.428;2022-08-19T06:38:14;5.80;;;5.23;;
3943;SDS011;1986;52.546;13.428;2022-08-19T06:40:41;0.80;;;0.80;;
3943;SDS011;1986;52.546;13.428;2022-08-19T06:43:18;0.77;;;0.77;;
3943;SDS011;1986;52.546;13.428;2022-08-19T06:45:47;5.43;;;1.67;;
3943;SDS011;1986;52.546;13.428;2022-08-19T06:48:16;1.00;;;1.00;;
3943;SDS011;1986;52.546;13.428;2022-08-19T06:50:50;1.57;;;1.57;;
3943;SDS011;1986;52.546;13.428;2022-08-19T06:53:18;1.50;;;1.40;;
3943;SDS011;1986;52.546;13.428;2022-08-19T06:55:53;0.90;;;0.90;;
3943;SDS011;1986;52.546;13.428;2022-08-19T06:58:34;0.90;;;0.90;;
3943;SDS011;1986;52.546;13.428;2022-08-19T07:01:03;1.80;;;1.70;;
3943;SDS011;1986;52.546;13.428;2022-08-19T07:03:33;0.93;;;0.93;;
3943;SDS011;1986;52.546;13.428;2022-08-19T07:06:02;3.57;;;3.37;;
3943;SDS011;1986;52.546;13.428;2022-08-19T07:08:33;2.80;;;2.60;;
3943;SDS011;1986;52.546;13.428;2022-08-19T07:11:06;3.70;;;1.73;;
3943;SDS011;1986;52.546;13.428;2022-08-19T07:13:50;1.20;;;1.20;;
3943;SDS011;1986;52.546;13.428;2022-08-19T07:16:18;2.23;;;2.03;;
3943;SDS011;1986;52.546;13.428;2022-08-19T07:18:48;3.63;;;3.43;;
3943;SDS011;1986;52.546;13.428;2022-08-19T07:21:18;1.10;;;1.10;;
3943;SDS011;1986;52.546;13.428;2022-08-19T07:23:49;8.10;;;6.37;;
3943;SDS011;1986;52.546;13.428;2022-08-19T07:26:17;1.00;;;1.00;;
3943;SDS011;1986;52.546;13.428;2022-08-19T07:28:48;16.17;;;4.70;;
3943;SDS011;1986;52.546;13.428;2022-08-19T07:31:18;4.80;;;3.93;;
3943;SDS011;1986;52.546;13.428;2022-08-19T07:33:50;1.80;;;1.70;;
3943;SDS011;1986;52.546;13.428;2022-08-19T07:36:23;1.80;;;1.80;;
3943;SDS011;1986;52.546;13.428;2022-08-19T07:38:57;5.83;;;5.43;;
3943;SDS011;1986;52.546;13.428;2022-08-19T07:41:26;8.67;;;7.90;;
3943;SDS011;1986;52.546;13.428;2022-08-19T07:43:58;5.37;;;5.10;;
3943;SDS011;1986;52.546;13.428;2022-08-19T07:46:28;7.70;;;7.23;;
3943;SDS011;1986;52.546;13.428;2022-08-19T07:48:56;5.20;;;4.90;;
3943;SDS011;1986;52.546;13.428;2022-08-19T07:51:26;3.60;;;3.40;;
3943;SDS011;1986;52.546;13.428;2022-08-19T07:53:54;4.73;;;4.30;;
3943;SDS011;1986;52.546;13.428;2022-08-19T07:56:21;2.30;;;2.30;;
3943;SDS011;1986;52.546;13.428;2022-08-19T07:58:49;2.57;;;2.47;;
3943;SDS011;1986;52.546;13.428;2022-08-19T08:01:20;2.67;;;2.57;;
3943;SDS011;1986;52.546;13.428;2022-08-19T08:03:48;5.27;;;5.07;;
3943;SDS011;1986;52.546;13.428;2022-08-19T08:06:34;4.80;;;4.53;;
3943;SDS011;1986;52.546;13.428;2022-08-19T08:09:20;2.90;;;2.90;;
3943;SDS011;1986;52.546;13.428;2022-08-19T08:11:51;4.00;;;3.90;;
3943;SDS011;1986;52.546;13.428;2022-08-19T08:14:23;4.27;;;4.10;;
3943;SDS011;1986;52.546;13.428;2022-08-19T08:16:54;4.57;;;4.27;;
3943;SDS011;1986;52.546;13.428;2022-08-19T08:19:24;6.80;;;6.40;;
3943;SDS011;1986;52.546;13.428;2022-08-19T08:21:53;6.10;;;5.60;;
3943;SDS011;1986;52.546;13.428;2022-08-19T08:24:21;4.03;;;3.93;;
3943;SDS011;1986;52.546;13.428;2022-08-19T08:26:48;3.10;;;3.00;;
3943;SDS011;1986;52.546;13.428;2022-08-19T08:29:16;4.43;;;4.33;;
3943;SDS011;1986;52.546;13.428;2022-08-19T08:31:45;4.80;;;4.50;;
3943;SDS011;1986;52.546;13.428;2022-08-19T08:34:16;3.50;;;3.40;;
3943;SDS011;1986;52.546;13.428;2022-08-19T08:36:44;3.40;;;3.30;;
3943;SDS011;1986;52.546;13.428;2022-08-19T08:39:14;7.80;;;7.33;;
3943;SDS011;1986;52.546;13.428;2022-08-19T08:41:44;10.17;;;9.37;;
3943;SDS011;1986;52.546;13.428;2022-08-19T08:44:20;7.37;;;5.60;;
3943;SDS011;1986;52.546;13.428;2022-08-19T08:46:50;8.13;;;7.40;;
3943;SDS011;1986;52.546;13.428;2022-08-19T08:49:28;8.60;;;7.23;;
3943;SDS011;1986;52.546;13.428;2022-08-19T08:52:02;6.07;;;5.57;;
3943;SDS011;1986;52.546;13.428;2022-08-19T08:54:34;3.87;;;3.63;;
3943;SDS011;1986;52.546;13.428;2022-08-19T08:57:11;16.60;;;7.83;;
3943;SDS011;1986;52.546;13.428;2022-08-19T08:59:41;9.37;;;6.80;;
3943;SDS011;1986;52.546;13.428;2022-08-19T09:02:11;4.17;;;3.83;;
3943;SDS011;1986;52.546;13.428;2022-08-19T09:04:40;3.70;;;3.50;;
3943;SDS011;1986;52.546;13.428;2022-08-19T09:07:15;4.30;;;4.10;;
3943;SDS011;1986;52.546;13.428;2022-08-19T09:09:51;6.80;;;6.20;;
3943;SDS011;1986;52.546;13.428;2022-08-19T09:12:22;7.50;;;6.90;;
3943;SDS011;1986;52.546;13.428;2022-08-19T09:15:02;4.73;;;4.33;;
3943;SDS011;1986;52.546;13.428;2022-08-19T09:17:33;10.57;;;8.57;;
3943;SDS011;1986;52.546;13.428;2022-08-19T09:20:04;6.70;;;6.07;;
3943;SDS011;1986;52.546;13.428;2022-08-19T09:22:38;7.53;;;7.00;;
3943;SDS011;1986;52.546;13.428;2022-08-19T09:25:09;15.13;;;7.53;;
3943;SDS011;1986;52.546;13.428;2022-08-19T09:27:39;7.93;;;7.20;;
3943;SDS011;1986;52.546;13.428;2022-08-19T09:30:10;8.97;;;8.20;;
3943;SDS011;1986;52.546;13.428;2022-08-19T09:32:40;14.70;;;6.13;;
3943;SDS011;1986;52.546;13.428;2022-08-19T09:35:13;9.53;;;8.63;;
3943;SDS011;1986;52.546;13.428;2022-08-19T09:37:41;6.90;;;6.27;;
3943;SDS011;1986;52.546;13.428;2022-08-19T09:40:09;23.10;;;13.57;;
3943;SDS011;1986;52.546;13.428;2022-08-19T09:42:37;7.80;;;7.40;;
3943;SDS011;1986;52.546;13.428;2022-08-19T09:45:07;16.87;;;13.00;;
3943;SDS011;1986;52.546;13.428;2022-08-19T09:47:35;9.60;;;9.07;;
3943;SDS011;1986;52.546;13.428;2022-08-19T09:50:03;10.20;;;9.40;;
3943;SDS011;1986;52.546;13.428;2022-08-19T09:52:33;8.40;;;7.90;;
3943;SDS011;1986;52.546;13.428;2022-08-19T09:55:02;9.37;;;8.67;;
3943;SDS011;1986;52.546;13.428;2022-08-19T09:57:31;6.53;;;6.30;;
3943;SDS011;1986;52.546;13.428;2022-08-19T09:59:58;8.40;;;7.80;;
3943;SDS011;1986;52.546;13.428;2022-08-19T10:02:28;22.90;;;12.30;;
3943;SDS011;1986;52.546;13.428;2022-08-19T10:04:58;12.10;;;11.10;;
3943;SDS011;1986;52.546;13.428;2022-08-19T10:07:45;7.43;;;6.80;;
3943;SDS011;1986;52.546;13.428;2022-08-19T10:10:13;6.20;;;6.00;;
3943;SDS011;1986;52.546;13.428;2022-08-19T10:12:41;5.63;;;5.53;;
3943;SDS011;1986;52.546;13.428;2022-08-19T10:15:12;9.07;;;8.30;;
3943;SDS011;1986;52.546;13.428;2022-08-19T10:17:40;11.20;;;10.37;;
3943;SDS011;1986;52.546;13.428;2022-08-19T10:20:07;7.40;;;7.20;;
3943;SDS011;1986;52.546;13.428;2022-08-19T10:22:34;8.07;;;7.67;;
3943;SDS011;1986;52.546;13.428;2022-08-19T10:25:05;9.83;;;8.93;;
3943;SDS011;1986;52.546;13.428;2022-08-19T10:27:33;9.20;;;8.60;;
3943;SDS011;1986;52.546;13.428;2022-08-19T10:30:00;7.83;;;7.10;;
3943;SDS011;1986;52.546;13.428;2022-08-19T10:32:29;8.27;;;7.63;;
3943;SDS011;1986;52.546;13.428;2022-08-19T10:34:56;8.90;;;8.30;;
3943;SDS011;1986;52.546;13.428;2022-08-19T10:37:23;12.90;;;10.73;;
3943;SDS011;1986;52.546;13.428;2022-08-19T10:39:50;7.70;;;7.27;;
3943;SDS011;1986;52.546;13.428;2022-08-19T10:42:21;12.70;;;9.20;;
3943;SDS011;1986;52.546;13.428;2022-08-19T10:44:49;12.77;;;8.97;;
3943;SDS011;1986;52.546;13.428;2022-08-19T10:47:16;7.83;;;7.10;;
3943;SDS011;1986;52.546;13.428;2022-08-19T10:49:44;6.20;;;6.00;;
3943;SDS011;1986;52.546;13.428;2022-08-19T10:52:37;15.67;;;10.20;;
3943;SDS011;1986;52.546;13.428;2022-08-19T10:55:04;12.70;;;10.13;;
3943;SDS011;1986;52.546;13.428;2022-08-19T10:57:53;7.67;;;7.37;;
3943;SDS011;1986;52.546;13.428;2022-08-19T11:00:26;11.87;;;10.97;;
3943;SDS011;1986;52.546;13.428;2022-08-19T11:02:54;7.23;;;6.93;;
3943;SDS011;1986;52.546;13.428;2022-08-19T11:05:21;10.67;;;9.07;;
3943;SDS011;1986;52.546;13.428;2022-08-19T11:07:52;12.77;;;11.57;;
3943;SDS011;1986;52.546;13.428;2022-08-19T11:10:20;11.70;;;10.80;;
3943;SDS011;1986;52.546;13.428;2022-08-19T11:12:52;9.17;;;8.37;;
3943;SDS011;1986;52.546;13.428;2022-08-19T11:15:21;7.87;;;7.27;;
3943;SDS011;1986;52.546;13.428;2022-08-19T11:17:48;10.67;;;8.53;;
3943;SDS011;1986;52.546;13.428;2022-08-19T11:20:19;6.50;;;6.23;;
3943;SDS011;1986;52.546;13.428;2022-08-19T11:22:48;12.70;;;10.60;;
3943;SDS011;1986;52.546;13.428;2022-08-19T11:25:20;6.47;;;6.27;;
3943;SDS011;1986;52.546;13.428;2022-08-19T11:27:52;8.30;;;7.63;;
3943;SDS011;1986;52.546;13.428;2022-08-19T11:30:51;11.00;;;9.27;;
3943;SDS011;1986;52.546;13.428;2022-08-19T11:33:23;6.60;;;6.30;;
3943;SDS011;1986;52.546;13.428;2022-08-19T11:35:54;8.47;;;7.67;;
3943;SDS011;1986;52.546;13.428;2022-08-19T11:38:23;10.43;;;9.43;;
3943;SDS011;1986;52.546;13.428;2022-08-19T11:40:56;9.40;;;8.53;;
3943;SDS011;1986;52.546;13.428;2022-08-19T11:43:27;6.03;;;5.43;;
3943;SDS011;1986;52.546;13.428;2022-08-19T11:45:59;7.10;;;6.57;;
3943;SDS011;1986;52.546;13.428;2022-08-19T11:48:29;5.87;;;5.57;;
3943;SDS011;1986;52.546;13.428;2022-08-19T11:50:58;9.57;;;8.00;;
3943;SDS011;1986;52.546;13.428;2022-08-19T11:53:31;12.17;;;8.20;;
3943;SDS011;1986;52.546;13.428;2022-08-19T11:55:59;10.43;;;8.20;;
3943;SDS011;1986;52.546;13.428;2022-08-19T11:58:30;11.70;;;10.70;;
3943;SDS011;1986;52.546;13.428;2022-08-19T12:01:04;5.20;;;5.10;;
3943;SDS011;1986;52.546;13.428;2022-08-19T12:03:38;10.27;;;6.60;;
3943;SDS011;1986;52.546;13.428;2022-08-19T12:06:11;10.97;;;10.00;;
3943;SDS011;1986;52.546;13.428;2022-08-19T12:08:43;8.23;;;7.50;;
3943;SDS011;1986;52.546;13.428;2022-08-19T12:11:13;13.33;;;10.17;;
3943;SDS011;1986;52.546;13.428;2022-08-19T12:13:50;9.37;;;8.87;;
3943;SDS011;1986;52.546;13.428;2022-08-19T12:16:21;11.90;;;8.07;;
3943;SDS011;1986;52.546;13.428;2022-08-19T12:18:50;10.37;;;9.43;;
3943;SDS011;1986;52.546;13.428;2022-08-19T12:21:19;8.87;;;7.67;;
3943;SDS011;1986;52.546;13.428;2022-08-19T12:23:50;10.67;;;9.83;;
3943;SDS011;1986;52.546;13.428;2022-08-19T12:26:19;11.37;;;10.30;;
3943;SDS011;1986;52.546;13.428;2022-08-19T12:28:57;11.63;;;10.60;;
3943;SDS011;1986;52.546;13.428;2022-08-19T12:31:25;12.57;;;11.37;;
3943;SDS011;1986;52.546;13.428;2022-08-19T12:33:53;10.90;;;10.17;;
3943;SDS011;1986;52.546;13.428;2022-08-19T12:36:23;9.23;;;8.83;;
3943;SDS011;1986;52.546;13.428;2022-08-19T12:38:51;15.83;;;9.97;;
3943;SDS011;1986;52.546;13.428;2022-08-19T12:41:22;11.13;;;10.53;;
3943;SDS011;1986;52.546;13.428;2022-08-19T12:43:49;9.53;;;9.23;;
3943;SDS011;1986;52.546;13.428;2022-08-19T12:46:20;11.97;;;11.07;;
3943;SDS011;1986;52.546;13.428;2022-08-19T12:48:47;11.60;;;11.10;;
3943;SDS011;1986;52.546;13.428;2022-08-19T12:51:18;10.90;;;10.40;;
3943;SDS011;1986;52.546;13.428;2022-08-19T12:53:45;11.60;;;11.00;;
3943;SDS011;1986;52.546;13.428;2022-08-19T12:56:14;14.37;;;13.13;;
3943;SDS011;1986;52.546;13.428;2022-08-19T12:58:42;11.70;;;11.20;;
3943;SDS011;1986;52.546;13.428;2022-08-19T13:01:14;14.73;;;13.93;;
3943;SDS011;1986;52.546;13.428;2022-08-19T13:03:46;13.80;;;13.17;;
3943;SDS011;1986;52.546;13.428;2022-08-19T13:06:14;14.00;;;13.30;;
3943;SDS011;1986;52.546;13.428;2022-08-19T13:08:41;12.80;;;12.20;;
3943;SDS011;1986;52.546;13.428;2022-08-19T13:11:10;20.00;;;17.90;;
3943;SDS011;1986;52.546;13.428;2022-08-19T13:13:41;12.70;;;12.20;;
3943;SDS011;1986;52.546;13.428;2022-08-19T13:16:11;17.13;;;16.00;;
3943;SDS011;1986;52.546;13.428;2022-08-19T13:18:41;16.83;;;15.40;;
3943;SDS011;1986;52.546;13.428;2022-08-19T13:21:13;14.13;;;13.53;;
3943;SDS011;1986;52.546;13.428;2022-08-19T13:23:45;18.40;;;16.97;;
3943;SDS011;1986;52.546;13.428;2022-08-19T13:26:13;12.30;;;11.60;;
3943;SDS011;1986;52.546;13.428;2022-08-19T13:28:47;42.60;;;22.07;;
3943;SDS011;1986;52.546;13.428;2022-08-19T13:31:32;12.07;;;11.37;;
3943;SDS011;1986;52.546;13.428;2022-08-19T13:34:30;10.97;;;10.67;;
3943;SDS011;1986;52.546;13.428;2022-08-19T13:37:02;15.20;;;14.23;;
3943;SDS011;1986;52.546;13.428;2022-08-19T13:39:31;17.70;;;15.87;;
3943;SDS011;1986;52.546;13.428;2022-08-19T13:41:58;15.53;;;14.50;;
3943;SDS011;1986;52.546;13.428;2022-08-19T13:44:30;14.30;;;13.60;;
3943;SDS011;1986;52.546;13.428;2022-08-19T13:47:00;17.50;;;16.33;;
3943;SDS011;1986;52.546;13.428;2022-08-19T13:49:31;17.60;;;16.10;;
3943;SDS011;1986;52.546;13.428;2022-08-19T13:51:59;14.90;;;14.00;;
3943;SDS011;1986;52.546;13.428;2022-08-19T13:54:28;17.80;;;16.30;;
3943;SDS011;1986;52.546;13.428;2022-08-19T13:56:55;13.40;;;12.63;;
3943;SDS011;1986;52.546;13.428;2022-08-19T13:59:23;16.30;;;15.30;;
3943;SDS011;1986;52.546;13.428;2022-08-19T14:01:50;14.67;;;13.47;;
3943;SDS011;1986;52.546;13.428;2022-08-19T14:04:18;14.13;;;12.70;;
3943;SDS011;1986;52.546;13.428;2022-08-19T14:06:46;15.27;;;14.13;;
3943;SDS011;1986;52.546;13.428;2022-08-19T14:09:17;17.27;;;15.67;;
3943;SDS011;1986;52.546;13.428;2022-08-19T14:11:44;16.27;;;14.87;;
3943;SDS011;1986;52.546;13.428;2022-08-19T14:14:11;12.60;;;11.80;;
3943;SDS011;1986;52.546;13.428;2022-08-19T14:16:38;14.63;;;13.67;;
3943;SDS011;1986;52.546;13.428;2022-08-19T14:19:05;15.73;;;14.60;;
3943;SDS011;1986;52.546;13.428;2022-08-19T14:21:33;15.50;;;14.50;;
3943;SDS011;1986;52.546;13.428;2022-08-19T14:24:01;13.80;;;13.00;;
3943;SDS011;1986;52.546;13.428;2022-08-19T14:26:29;12.40;;;11.90;;
3943;SDS011;1986;52.546;13.428;2022-08-19T14:28:56;15.07;;;14.37;;
3943;SDS011;1986;52.546;13.428;2022-08-19T14:31:23;18.57;;;17.07;;
3943;SDS011;1986;52.546;13.428;2022-08-19T14:33:51;10.87;;;10.57;;
3943;SDS011;1986;52.546;13.428;2022-08-19T14:36:19;11.27;;;10.97;;
3943;SDS011;1986;52.546;13.428;2022-08-19T14:38:47;12.40;;;12.00;;
3943;SDS011;1986;52.546;13.428;2022-08-19T14:41:17;16.20;;;15.30;;
3943;SDS011;1986;52.546;13.428;2022-08-19T14:43:48;13.73;;;13.13;;
3943;SDS011;1986;52.546;13.428;2022-08-19T14:46:18;19.70;;;17.73;;
3943;SDS011;1986;52.546;13.428;2022-08-19T14:48:46;18.50;;;17.17;;
3943;SDS011;1986;52.546;13.428;2022-08-19T14:51:17;15.27;;;14.33;;
3943;SDS011;1986;52.546;13.428;2022-08-19T14:53:44;11.10;;;10.80;;
3943;SDS011;1986;52.546;13.428;2022-08-19T14:56:18;12.00;;;11.60;;
3943;SDS011;1986;52.546;13.428;2022-08-19T14:58:48;15.30;;;14.23;;
3943;SDS011;1986;52.546;13.428;2022-08-19T15:01:16;11.63;;;11.23;;
3943;SDS011;1986;52.546;13.428;2022-08-19T15:03:45;11.43;;;11.13;;